createdAt,value
2023-05-25T00:00:02.691Z,3.70
2023-05-25T00:02:34.046Z,3.80
2023-05-25T00:05:05.758Z,4.37
2023-05-25T00:07:34.428Z,4.00
2023-05-25T00:10:03.409Z,3.63
2023-05-25T00:12:36.996Z,3.83
2023-05-25T00:15:05.731Z,4.73
2023-05-25T00:17:37.425Z,4.60
2023-05-25T00:20:09.671Z,4.23
2023-05-25T00:22:38.564Z,3.80
2023-05-25T00:25:07.740Z,4.10
2023-05-25T00:27:37.887Z,4.17
2023-05-25T00:30:38.544Z,4.17
2023-05-25T00:33:10.624Z,4.87
2023-05-25T00:35:39.629Z,4.40
2023-05-25T00:38:08.091Z,4.17
2023-05-25T00:40:37.311Z,4.30
2023-05-25T00:43:07.885Z,3.87
2023-05-25T00:45:36.550Z,4.20
2023-05-25T00:48:05.500Z,4.40
2023-05-25T00:50:39.241Z,4.17
2023-05-25T00:53:13.510Z,4.27
2023-05-25T00:55:46.187Z,4.13
2023-05-25T00:58:18.803Z,4.53
2023-05-25T01:00:49.821Z,4.27
2023-05-25T01:03:21.850Z,4.37
2023-05-25T01:05:53.165Z,4.30
2023-05-25T01:08:28.642Z,4.47
2023-05-25T01:10:59.408Z,4.27
2023-05-25T01:13:30.195Z,5.03
2023-05-25T01:15:59.982Z,4.60
2023-05-25T01:18:28.493Z,4.53
2023-05-25T01:21:13.585Z,4.73
2023-05-25T01:24:10.577Z,4.70
2023-05-25T01:26:41.624Z,5.00
2023-05-25T01:29:13.744Z,4.70
2023-05-25T01:31:43.202Z,5.00
2023-05-25T01:34:12.848Z,4.57
2023-05-25T01:36:43.929Z,5.33
2023-05-25T01:39:12.804Z,5.00
2023-05-25T01:41:41.383Z,4.60
2023-05-25T01:44:10.181Z,5.37
2023-05-25T01:46:39.707Z,4.80
2023-05-25T01:49:16.724Z,4.97
2023-05-25T01:51:56.074Z,5.40
2023-05-25T01:54:28.531Z,5.00
2023-05-25T01:56:58.858Z,5.20
2023-05-25T01:59:28.015Z,4.90
2023-05-25T02:01:56.705Z,5.57
2023-05-25T02:04:25.318Z,5.77
2023-05-25T02:06:55.372Z,5.47
2023-05-25T02:09:23.884Z,5.30
2023-05-25T02:11:53.129Z,5.23
2023-05-25T02:14:21.709Z,5.77
2023-05-25T02:16:50.359Z,5.20
2023-05-25T02:19:18.894Z,5.60
2023-05-25T02:21:48.185Z,6.00
2023-05-25T02:24:19.816Z,5.43
2023-05-25T02:26:50.954Z,5.53
2023-05-25T02:29:20.864Z,6.03
2023-05-25T02:31:49.700Z,5.40
2023-05-25T02:34:18.768Z,6.33
2023-05-25T02:36:47.758Z,5.43
2023-05-25T02:39:19.202Z,5.87
2023-05-25T02:41:48.164Z,6.43
2023-05-25T02:44:18.286Z,6.13
2023-05-25T02:46:47.596Z,6.23
2023-05-25T02:49:16.164Z,5.30
2023-05-25T02:51:44.726Z,5.40
2023-05-25T02:54:13.608Z,6.20
2023-05-25T02:56:43.777Z,6.17
2023-05-25T02:59:15.316Z,5.67
2023-05-25T03:01:44.056Z,5.37
2023-05-25T03:04:12.666Z,5.70
2023-05-25T03:06:41.772Z,5.80
2023-05-25T03:09:15.853Z,6.47
2023-05-25T03:11:46.264Z,6.20
2023-05-25T03:14:18.073Z,6.27
2023-05-25T03:16:54.153Z,7.20
2023-05-25T03:19:24.492Z,6.93
2023-05-25T03:21:53.249Z,7.00
2023-05-25T03:24:22.017Z,6.40
2023-05-25T03:26:51.942Z,6.80
2023-05-25T03:29:21.847Z,6.13
2023-05-25T03:31:50.908Z,6.60
2023-05-25T03:34:21.080Z,7.00
2023-05-25T03:36:50.100Z,8.23
2023-05-25T03:39:20.083Z,6.73
2023-05-25T03:41:48.964Z,7.97
2023-05-25T03:44:19.554Z,6.73
2023-05-25T03:46:53.395Z,7.70
2023-05-25T03:49:21.944Z,7.33
2023-05-25T03:51:51.360Z,6.40
2023-05-25T03:54:20.187Z,7.50
2023-05-25T03:56:53.711Z,7.57
2023-05-25T03:59:23.809Z,7.60
2023-05-25T04:01:52.296Z,8.13
2023-05-25T04:04:21.153Z,7.60
2023-05-25T04:06:50.084Z,7.30
2023-05-25T04:09:18.687Z,8.00
2023-05-25T04:11:47.192Z,8.73
2023-05-25T04:14:15.660Z,8.33
2023-05-25T04:16:46.337Z,8.27
2023-05-25T04:19:17.384Z,7.43
2023-05-25T04:21:46.819Z,7.67
2023-05-25T04:24:17.674Z,8.47
2023-05-25T04:26:47.058Z,8.53
2023-05-25T04:29:15.899Z,8.80
2023-05-25T04:32:05.550Z,8.30
2023-05-25T04:35:06.922Z,8.20
2023-05-25T04:37:44.904Z,9.13
2023-05-25T04:40:14.527Z,8.20
2023-05-25T04:42:45.083Z,9.00
2023-05-25T04:45:17.646Z,9.77
2023-05-25T04:47:47.717Z,8.43
2023-05-25T04:50:16.311Z,8.87
2023-05-25T04:52:44.874Z,9.03
2023-05-25T04:55:13.602Z,9.00
2023-05-25T04:57:44.115Z,9.80
2023-05-25T05:00:15.338Z,9.87
2023-05-25T05:02:44.553Z,9.27
2023-05-25T05:05:16.619Z,10.13
2023-05-25T05:07:49.761Z,8.80
2023-05-25T05:10:29.447Z,9.30
2023-05-25T05:13:11.359Z,10.10
2023-05-25T05:15:40.054Z,10.20
2023-05-25T05:18:08.841Z,8.87
2023-05-25T05:20:39.858Z,9.50
2023-05-25T05:23:08.632Z,9.60
2023-05-25T05:25:38.327Z,9.47
2023-05-25T05:28:07.030Z,9.97
2023-05-25T05:30:46.699Z,8.93
2023-05-25T05:33:16.109Z,10.07
2023-05-25T05:35:50.238Z,9.27
2023-05-25T05:38:23.844Z,9.57
2023-05-25T05:40:52.446Z,9.37
2023-05-25T05:43:25.173Z,9.10
2023-05-25T05:45:58.318Z,9.27
2023-05-25T05:48:27.367Z,8.20
2023-05-25T05:51:03.024Z,9.23
2023-05-25T05:53:31.852Z,10.10
2023-05-25T05:56:03.631Z,9.97
2023-05-25T05:58:34.601Z,9.20
2023-05-25T06:01:04.746Z,9.63
2023-05-25T06:03:46.437Z,10.33
2023-05-25T06:06:18.715Z,9.27
2023-05-25T06:08:49.961Z,9.70
2023-05-25T06:11:50.651Z,9.40
2023-05-25T06:14:19.511Z,9.30
2023-05-25T06:16:48.042Z,9.03
2023-05-25T06:19:16.833Z,9.33
2023-05-25T06:21:47.047Z,9.90
2023-05-25T06:24:19.328Z,9.90
2023-05-25T06:26:47.862Z,9.53
2023-05-25T06:29:17.440Z,9.40
2023-05-25T06:31:46.305Z,9.80
2023-05-25T06:34:15.219Z,9.53
2023-05-25T06:36:45.294Z,9.80
2023-05-25T06:39:18.675Z,10.10
2023-05-25T06:44:51.961Z,9.27
2023-05-25T06:47:20.442Z,9.53
2023-05-25T06:49:52.739Z,9.60
2023-05-25T06:52:22.531Z,9.37
2023-05-25T06:54:52.448Z,9.80
2023-05-25T06:57:21.477Z,10.17
2023-05-25T06:59:49.937Z,8.90
2023-05-25T07:02:18.906Z,9.53
2023-05-25T07:04:47.431Z,9.47
2023-05-25T07:07:16.055Z,9.43
2023-05-25T07:09:47.595Z,9.70
2023-05-25T07:12:18.258Z,10.10
2023-05-25T07:14:48.204Z,10.10
2023-05-25T07:17:19.005Z,9.67
2023-05-25T07:19:50.143Z,9.70
2023-05-25T07:22:19.352Z,9.07
2023-05-25T07:24:48.261Z,9.10
2023-05-25T07:27:19.644Z,9.47
2023-05-25T07:29:49.118Z,10.00
2023-05-25T07:32:19.196Z,10.67
2023-05-25T07:34:47.965Z,9.70
2023-05-25T07:37:16.468Z,9.67
2023-05-25T07:39:47.450Z,9.90
2023-05-25T07:42:20.869Z,10.57
2023-05-25T07:44:51.175Z,10.03
2023-05-25T07:47:20.063Z,9.67
2023-05-25T07:49:48.651Z,10.30
2023-05-25T07:52:19.048Z,10.33
2023-05-25T07:54:47.952Z,9.30
2023-05-25T07:57:16.702Z,9.90
2023-05-25T07:59:46.343Z,10.00
2023-05-25T08:02:16.694Z,9.83
2023-05-25T08:04:45.529Z,10.23
2023-05-25T08:07:14.167Z,10.03
2023-05-25T08:09:43.032Z,9.63
2023-05-25T08:12:27.015Z,10.00
2023-05-25T08:15:00.452Z,9.63
2023-05-25T08:17:30.627Z,9.17
2023-05-25T08:19:59.327Z,9.03
2023-05-25T08:22:28.197Z,9.53
2023-05-25T08:24:58.456Z,8.83
2023-05-25T08:27:27.464Z,9.03
2023-05-25T08:29:56.216Z,9.53
2023-05-25T08:32:25.102Z,9.27
2023-05-25T08:34:57.215Z,8.90
2023-05-25T08:37:26.605Z,8.63
2023-05-25T08:39:55.731Z,8.73
2023-05-25T08:42:24.905Z,9.13
2023-05-25T08:44:53.846Z,8.97
2023-05-25T08:47:34.156Z,9.30
2023-05-25T08:50:05.123Z,9.17
2023-05-25T08:52:37.873Z,9.03
2023-05-25T08:55:07.188Z,9.07
2023-05-25T08:57:37.952Z,8.90
2023-05-25T09:00:10.957Z,8.93
2023-05-25T09:02:42.581Z,8.77
2023-05-25T09:05:15.289Z,8.43
2023-05-25T09:07:45.089Z,8.13
2023-05-25T09:10:14.044Z,8.63
2023-05-25T09:12:44.076Z,8.77
2023-05-25T09:15:13.413Z,8.43
2023-05-25T09:17:42.394Z,8.83
2023-05-25T09:20:14.246Z,8.20
2023-05-25T09:22:42.976Z,8.23
2023-05-25T09:25:12.752Z,8.50
2023-05-25T09:27:41.617Z,8.25
2023-05-25T09:30:10.845Z,8.00
2023-05-25T09:32:39.864Z,7.70
2023-05-25T09:35:09.465Z,8.10
2023-05-25T09:37:40.040Z,7.77
2023-05-25T09:40:15.337Z,7.50
2023-05-25T09:42:44.922Z,8.20
2023-05-25T09:45:19.654Z,7.43
2023-05-25T09:47:51.480Z,9.23
2023-05-25T09:50:21.400Z,7.97
2023-05-25T09:52:51.769Z,7.87
2023-05-25T09:55:20.369Z,7.78
2023-05-25T09:57:48.998Z,8.30
2023-05-25T10:00:21.392Z,7.77
2023-05-25T10:02:50.133Z,7.78
2023-05-25T10:05:19.275Z,8.10
2023-05-25T10:07:54.658Z,8.13
2023-05-25T10:10:24.025Z,7.88
2023-05-25T10:12:55.290Z,8.02
2023-05-25T10:15:24.427Z,8.00
2023-05-25T10:17:54.761Z,7.90
2023-05-25T10:20:27.443Z,7.95
2023-05-25T10:23:03.342Z,7.88
2023-05-25T10:25:34.681Z,7.18
2023-05-25T10:28:05.221Z,7.68
2023-05-25T10:30:36.936Z,7.30
2023-05-25T10:33:06.043Z,7.63
2023-05-25T10:35:46.793Z,8.00
2023-05-25T10:38:29.195Z,7.07
2023-05-25T10:40:58.128Z,8.38
2023-05-25T10:43:27.162Z,7.78
2023-05-25T10:45:57.446Z,8.10
2023-05-25T10:48:27.308Z,8.30
2023-05-25T10:50:56.018Z,8.40
2023-05-25T10:53:26.021Z,7.82
2023-05-25T10:56:03.599Z,7.47
2023-05-25T10:58:32.769Z,7.53
2023-05-25T11:01:02.246Z,7.20
2023-05-25T11:03:49.596Z,8.38
2023-05-25T11:06:19.082Z,7.45
2023-05-25T11:08:56.494Z,7.45
2023-05-25T11:11:45.500Z,7.78
2023-05-25T11:14:22.892Z,7.25
2023-05-25T11:17:06.305Z,7.93
2023-05-25T11:19:40.937Z,7.80
2023-05-25T11:22:20.682Z,7.88
2023-05-25T11:24:50.978Z,8.07
2023-05-25T11:27:24.772Z,8.10
2023-05-25T11:29:53.736Z,7.40
2023-05-25T11:32:22.763Z,7.53
2023-05-25T11:34:54.149Z,7.55
2023-05-25T11:37:24.962Z,7.90
2023-05-25T11:39:55.370Z,7.45
2023-05-25T11:42:24.977Z,7.22
2023-05-25T11:44:54.003Z,7.10
2023-05-25T11:47:25.708Z,7.82
2023-05-25T11:49:58.416Z,7.22
2023-05-25T11:52:29.874Z,7.05
2023-05-25T11:54:59.888Z,6.97
2023-05-25T11:57:28.641Z,7.28
2023-05-25T12:00:02.034Z,6.57
2023-05-25T12:02:38.832Z,6.85
2023-05-25T12:05:10.668Z,7.10
2023-05-25T12:07:44.839Z,7.45
2023-05-25T12:10:18.243Z,7.13
2023-05-25T12:12:47.569Z,7.43
2023-05-25T12:15:19.085Z,7.45
2023-05-25T12:17:49.614Z,6.40
2023-05-25T12:20:18.936Z,6.95
2023-05-25T12:22:49.459Z,6.85
2023-05-25T12:25:23.870Z,7.03
2023-05-25T12:28:07.811Z,7.03
2023-05-25T12:30:36.395Z,7.10
2023-05-25T12:33:05.271Z,7.40
2023-05-25T12:35:46.768Z,6.72
2023-05-25T12:38:16.181Z,6.82
2023-05-25T12:40:46.626Z,7.00
2023-05-25T12:43:19.937Z,6.97
2023-05-25T12:45:48.543Z,7.25
2023-05-25T12:48:17.289Z,7.38
2023-05-25T12:51:01.169Z,7.30
2023-05-25T12:53:32.904Z,6.55
2023-05-25T12:56:06.606Z,6.75
2023-05-25T12:58:35.214Z,6.75
2023-05-25T13:01:03.995Z,6.47
2023-05-25T13:03:33.129Z,6.30
2023-05-25T13:06:02.669Z,6.32
2023-05-25T13:08:31.419Z,5.93
2023-05-25T13:11:01.345Z,6.00
2023-05-25T13:13:31.534Z,6.20
2023-05-25T13:16:00.516Z,6.00
2023-05-25T13:18:28.973Z,5.55
2023-05-25T13:20:57.948Z,6.28
2023-05-25T13:23:27.185Z,6.07
2023-05-25T13:25:55.949Z,6.05
2023-05-25T13:28:24.479Z,5.55
2023-05-25T13:30:54.556Z,5.60
2023-05-25T13:33:23.080Z,5.28
2023-05-25T13:35:59.530Z,5.50
2023-05-25T13:38:29.856Z,5.53
2023-05-25T13:40:58.463Z,5.43
2023-05-25T13:43:28.007Z,5.25
2023-05-25T13:45:59.110Z,5.15
2023-05-25T13:48:30.107Z,5.15
2023-05-25T13:51:00.063Z,5.47
2023-05-25T13:53:28.746Z,5.25
2023-05-25T13:55:57.301Z,4.88
2023-05-25T13:58:26.001Z,4.65
2023-05-25T14:00:54.865Z,4.68
2023-05-25T14:03:27.925Z,5.03
2023-05-25T14:05:56.537Z,4.88
2023-05-25T14:08:25.317Z,4.55
2023-05-25T14:10:54.744Z,5.13
2023-05-25T14:13:24.342Z,4.50
2023-05-25T14:15:53.492Z,4.80
2023-05-25T14:18:26.137Z,5.07
2023-05-25T14:20:57.144Z,4.47
2023-05-25T14:23:25.692Z,4.28
2023-05-25T14:25:54.237Z,4.47
2023-05-25T14:28:23.063Z,3.50
2023-05-25T14:30:56.139Z,4.22
2023-05-25T14:33:26.799Z,4.25
2023-05-25T14:36:05.547Z,4.05
2023-05-25T14:38:36.189Z,4.40
2023-05-25T14:41:05.306Z,4.35
2023-05-25T14:43:34.950Z,4.40
2023-05-25T14:46:03.706Z,4.20
2023-05-25T14:48:32.369Z,4.18
2023-05-25T14:51:04.110Z,4.32
2023-05-25T14:53:32.661Z,4.35
2023-05-25T14:56:03.844Z,4.25
2023-05-25T14:58:33.072Z,3.67
2023-05-25T15:01:01.621Z,4.10
2023-05-25T15:03:30.369Z,4.32
2023-05-25T15:05:58.926Z,4.25
2023-05-25T15:08:27.549Z,4.35
2023-05-25T15:10:56.575Z,4.20
2023-05-25T15:13:26.518Z,4.32
2023-05-25T15:15:57.821Z,4.40
2023-05-25T15:18:26.406Z,4.35
2023-05-25T15:20:54.997Z,4.30
2023-05-25T15:23:25.708Z,4.30
2023-05-25T15:25:57.590Z,4.10
2023-05-25T15:28:27.973Z,4.03
2023-05-25T15:30:56.802Z,4.45
2023-05-25T15:33:35.794Z,4.55
2023-05-25T15:36:13.176Z,4.70
2023-05-25T15:38:44.600Z,4.45
2023-05-25T15:41:16.655Z,4.30
2023-05-25T15:43:51.628Z,4.72
2023-05-25T15:46:20.226Z,4.22
2023-05-25T15:48:48.883Z,4.43
2023-05-25T15:51:17.387Z,4.32
2023-05-25T15:53:45.987Z,4.55
2023-05-25T15:56:14.989Z,3.83
2023-05-25T15:58:47.620Z,4.15
2023-05-25T16:01:17.530Z,4.35
2023-05-25T16:03:47.164Z,4.80
2023-05-25T16:06:15.691Z,4.43
2023-05-25T16:08:45.271Z,4.47
2023-05-25T16:11:13.837Z,5.07
2023-05-25T16:13:42.509Z,4.72
2023-05-25T16:16:12.504Z,4.70
2023-05-25T16:18:43.971Z,4.47
2023-05-25T16:21:13.478Z,4.50
2023-05-25T16:23:42.171Z,4.15
2023-05-25T16:26:11.458Z,4.47
2023-05-25T16:34:13.350Z,4.93
2023-05-25T16:36:41.863Z,4.60
2023-05-25T16:39:11.778Z,4.75
2023-05-25T16:41:41.261Z,4.40
2023-05-25T16:44:11.096Z,4.65
2023-05-25T16:46:39.800Z,4.70
2023-05-25T16:49:08.320Z,4.40
2023-05-25T16:51:38.971Z,4.82
2023-05-25T16:54:07.986Z,4.35
2023-05-25T16:56:37.675Z,4.10
2023-05-25T16:59:07.656Z,4.43
2023-05-25T17:01:36.510Z,4.53
2023-05-25T17:04:06.533Z,4.70
2023-05-25T17:06:39.051Z,4.47
2023-05-25T17:09:11.827Z,4.57
2023-05-25T17:11:40.343Z,4.63
2023-05-25T17:14:10.017Z,4.30
2023-05-25T17:16:39.000Z,4.32
2023-05-25T17:19:07.646Z,4.60
2023-05-25T17:21:36.202Z,4.97
2023-05-25T17:24:05.008Z,4.15
2023-05-25T17:26:36.572Z,4.93
2023-05-25T17:29:07.833Z,4.63
2023-05-25T17:31:43.573Z,4.70
2023-05-25T17:34:12.790Z,4.60
2023-05-25T17:36:42.248Z,4.70
2023-05-25T17:39:11.075Z,4.13
2023-05-25T17:41:41.857Z,4.70
2023-05-25T17:44:10.452Z,4.40
2023-05-25T17:46:38.922Z,4.20
2023-05-25T17:49:07.408Z,4.57
2023-05-25T17:51:37.516Z,4.10
2023-05-25T17:54:06.679Z,4.15
2023-05-25T17:56:35.798Z,4.63
2023-05-25T17:59:05.713Z,4.20
2023-05-25T18:01:35.702Z,4.53
2023-05-25T18:04:04.401Z,4.40
2023-05-25T18:06:33.207Z,4.28
2023-05-25T18:09:01.901Z,4.35
2023-05-25T18:11:33.580Z,4.30
2023-05-25T18:14:02.852Z,4.40
2023-05-25T18:16:39.816Z,4.38
2023-05-25T18:19:09.481Z,4.68
2023-05-25T18:21:38.410Z,4.47
2023-05-25T18:24:08.985Z,4.25
2023-05-25T18:26:37.755Z,5.00
2023-05-25T18:29:06.302Z,5.00
2023-05-25T18:31:36.255Z,4.68
2023-05-25T18:34:04.793Z,4.65
2023-05-25T18:36:34.087Z,4.07
2023-05-25T18:39:02.962Z,3.95
2023-05-25T18:41:33.851Z,4.32
2023-05-25T18:44:02.418Z,3.50
2023-05-25T18:46:31.068Z,4.10
2023-05-25T18:49:01.450Z,4.35
2023-05-25T18:51:29.963Z,4.97
2023-05-25T18:53:59.694Z,3.88
2023-05-25T18:56:28.192Z,4.40
2023-05-25T18:58:57.428Z,4.20
2023-05-25T19:01:26.506Z,4.15
2023-05-25T19:03:58.124Z,4.55
2023-05-25T19:06:29.668Z,4.32
2023-05-25T19:08:58.238Z,4.70
2023-05-25T19:11:27.707Z,4.50
2023-05-25T19:13:56.351Z,4.38
2023-05-25T19:16:29.537Z,4.18
2023-05-25T19:18:58.889Z,4.63
2023-05-25T19:21:28.687Z,4.80
2023-05-25T19:23:58.127Z,5.32
2023-05-25T19:26:27.657Z,4.97
2023-05-25T19:28:57.396Z,4.95
2023-05-25T19:31:26.061Z,4.63
2023-05-25T19:33:54.689Z,4.55
2023-05-25T19:36:24.087Z,5.22
2023-05-25T19:38:53.894Z,4.82
2023-05-25T19:44:21.808Z,4.90
2023-05-25T19:46:50.476Z,5.55
2023-05-25T19:49:18.934Z,5.00
2023-05-25T19:51:47.514Z,5.47
2023-05-25T19:54:17.452Z,5.38
2023-05-25T19:56:45.941Z,5.30
2023-05-25T19:59:15.611Z,5.47
2023-05-25T20:01:44.088Z,5.47
2023-05-25T20:04:12.714Z,4.63
2023-05-25T20:06:41.265Z,5.43
2023-05-25T20:09:12.544Z,5.45
2023-05-25T20:11:42.765Z,5.50
2023-05-25T20:14:11.570Z,5.50
2023-05-25T20:16:41.753Z,5.75
2023-05-25T20:19:11.295Z,5.22
2023-05-25T20:21:40.013Z,5.38
2023-05-25T20:24:08.573Z,5.13
2023-05-25T20:26:36.988Z,5.53
2023-05-25T20:29:08.264Z,5.72
2023-05-25T20:31:36.973Z,5.45
2023-05-25T20:34:05.447Z,6.40
2023-05-25T20:36:34.276Z,5.90
2023-05-25T20:39:03.336Z,5.88
2023-05-25T20:41:32.134Z,5.07
2023-05-25T20:44:00.809Z,5.55
2023-05-25T20:46:31.040Z,5.97
2023-05-25T20:48:59.650Z,5.80
2023-05-25T20:51:31.288Z,6.32
2023-05-25T20:53:59.872Z,6.13
2023-05-25T20:56:30.983Z,6.35
2023-05-25T20:58:59.540Z,6.25
2023-05-25T21:01:29.417Z,6.88
2023-05-25T21:03:59.662Z,6.95
2023-05-25T21:06:32.234Z,6.78
2023-05-25T21:09:01.725Z,6.40
2023-05-25T21:11:31.221Z,6.70
2023-05-25T21:13:59.971Z,7.55
2023-05-25T21:16:29.161Z,6.63
2023-05-25T21:18:59.314Z,6.78
2023-05-25T21:21:28.121Z,6.93
2023-05-25T21:23:56.848Z,6.35
2023-05-25T21:26:28.715Z,6.82
2023-05-25T21:28:58.645Z,6.43
2023-05-25T21:31:27.655Z,6.35
2023-05-25T21:34:00.190Z,7.07
2023-05-25T21:36:30.535Z,6.18
2023-05-25T21:38:59.038Z,6.10
2023-05-25T21:41:28.117Z,6.35
2023-05-25T21:43:56.617Z,6.13
2023-05-25T21:46:25.487Z,6.05
2023-05-25T21:48:54.139Z,6.60
2023-05-25T21:51:22.638Z,6.90
2023-05-25T21:53:52.542Z,7.25
2023-05-25T21:56:21.231Z,7.95
2023-05-25T21:58:49.959Z,8.55
2023-05-25T22:01:19.360Z,7.18
2023-05-25T22:03:50.378Z,6.30
2023-05-25T22:06:18.940Z,6.90
2023-05-25T22:08:47.643Z,6.90
2023-05-25T22:11:17.683Z,6.60
2023-05-25T22:13:46.827Z,6.97
2023-05-25T22:16:15.515Z,6.82
2023-05-25T22:18:44.150Z,7.13
2023-05-25T22:21:12.923Z,6.72
2023-05-25T22:23:41.942Z,7.57
2023-05-25T22:26:17.660Z,6.88
2023-05-25T22:28:49.055Z,6.82
2023-05-25T22:31:17.609Z,7.00
2023-05-25T22:33:47.504Z,6.82
2023-05-25T22:36:16.480Z,6.65
2023-05-25T22:38:57.690Z,7.07
2023-05-25T22:41:30.288Z,7.65
2023-05-25T22:44:00.226Z,7.00
2023-05-25T22:46:28.844Z,6.90
2023-05-25T22:48:57.714Z,6.72
2023-05-25T22:51:26.431Z,7.25
2023-05-25T22:53:55.331Z,7.03
2023-05-25T22:56:23.812Z,7.05
2023-05-25T22:58:52.411Z,7.20
2023-05-25T23:01:22.478Z,7.45
2023-05-25T23:03:51.010Z,7.30
2023-05-25T23:06:19.814Z,6.72
2023-05-25T23:08:48.411Z,6.05
2023-05-25T23:11:16.964Z,6.30
2023-05-25T23:13:45.326Z,6.97
2023-05-25T23:16:18.656Z,6.73
2023-05-25T23:18:48.622Z,8.02
2023-05-25T23:21:17.089Z,6.57
2023-05-25T23:23:45.554Z,7.30
2023-05-25T23:26:14.144Z,7.15
2023-05-25T23:28:42.705Z,6.80
2023-05-25T23:31:11.209Z,7.00
2023-05-25T23:33:39.738Z,6.75
2023-05-25T23:36:10.121Z,7.68
2023-05-25T23:38:38.759Z,6.40
2023-05-25T23:41:07.260Z,7.03
2023-05-25T23:43:35.762Z,6.50
2023-05-25T23:46:04.380Z,7.20
2023-05-25T23:48:32.922Z,6.97
2023-05-25T23:51:01.378Z,6.75
2023-05-25T23:53:31.271Z,6.43
2023-05-25T23:55:59.879Z,6.93
2023-05-25T23:58:28.606Z,6.57
